Time;durP1;ratioP1;P1;durP2;ratioP2;P2;SDS_P1;SDS_P2;PMS_P1;PMS_P2;Temp;Humidity;BMP_temperature;BMP_pressure;BME280_temperature;BME280_humidity;BME280_pressure;Samples;Min_cycle;Max_cycle;Signal;HPM_P1;HPM_P2
2021/09/26 00:03:32;;;;;;;9.23;5.00;;;;;;;16.19;97.68;96422.16;5220586;56;20162;-73
2021/09/26 00:08:34;;;;;;;5.07;4.50;;;;;;;16.14;97.97;96425.69;5220103;56;20223;-74
2021/09/26 00:13:39;;;;;;;4.82;4.43;;;;;;;16.24;97.50;96429.81;5220213;56;20139;-73
2021/09/26 00:18:42;;;;;;;6.80;4.95;;;;;;;16.28;97.56;96427.53;5220300;56;20740;-73
2021/09/26 00:23:45;;;;;;;11.73;5.00;;;;;;;16.41;96.96;96421.56;5220114;56;20127;-75
2021/09/26 00:28:47;;;;;;;7.22;4.88;;;;;;;16.28;96.68;96419.19;5219985;56;20232;-74
2021/09/26 00:33:50;;;;;;;6.25;5.32;;;;;;;16.13;97.70;96432.50;5220166;56;20135;-73
2021/09/26 00:38:52;;;;;;;6.45;4.93;;;;;;;16.11;98.59;96442.63;5219158;56;20190;-74
2021/09/26 00:43:54;;;;;;;8.38;5.15;;;;;;;16.17;98.51;96457.41;5219979;56;20122;-74
2021/09/26 00:48:57;;;;;;;10.30;5.43;;;;;;;16.11;99.21;96442.63;5218422;56;20153;-73
2021/09/26 00:53:59;;;;;;;10.00;5.78;;;;;;;16.20;98.78;96437.63;5214390;56;20195;-73
2021/09/26 00:59:01;;;;;;;8.40;5.97;;;;;;;16.27;98.55;96437.19;5216527;56;20122;-74
2021/09/26 01:04:04;;;;;;;8.10;6.93;;;;;;;16.33;98.46;96426.03;5215050;56;20136;-73
2021/09/26 01:09:25;;;;;;;9.10;6.55;;;;;;;16.44;98.01;96420.56;5213052;56;20113;-73
2021/09/26 01:15:11;;;;;;;10.95;7.13;;;;;;;16.46;98.29;96424.34;5216097;56;20206;-73
2021/09/26 01:20:36;;;;;;;10.57;6.97;;;;;;;16.44;98.19;96420.56;5221296;56;20135;-73
2021/09/26 01:26:01;;;;;;;8.23;6.95;;;;;;;16.46;97.72;96440.34;5222547;56;20135;-73
2021/09/26 01:31:11;;;;;;;8.23;6.25;;;;;;;16.63;96.75;96446.81;5222636;56;20118;-73
2021/09/26 01:36:26;;;;;;;6.75;5.85;;;;;;;16.56;97.07;96438.13;5222219;56;20179;-73
2021/09/26 01:42:13;;;;;;;7.55;6.30;;;;;;;16.45;97.34;96441.59;5222568;56;20135;-73
2021/09/26 01:47:19;;;;;;;6.13;5.53;;;;;;;16.40;97.90;96453.47;5220532;56;20122;-73
2021/09/26 01:52:27;;;;;;;6.65;5.45;;;;;;;16.40;97.76;96462.63;5222216;56;20113;-73
2021/09/26 01:57:30;;;;;;;6.22;5.63;;;;;;;16.29;98.41;96459.75;5221552;56;20135;-74
2021/09/26 02:02:33;;;;;;;8.80;5.72;;;;;;;16.23;98.38;96452.63;5222021;56;20650;-74
2021/09/26 02:07:43;;;;;;;7.03;5.25;;;;;;;16.26;98.17;96457.22;5221602;56;20119;-73
2021/09/26 02:12:46;;;;;;;6.15;5.55;;;;;;;16.16;98.35;96450.28;5221936;56;20117;-73
2021/09/26 02:17:49;;;;;;;6.18;5.57;;;;;;;16.11;99.18;96451.00;5221567;56;20135;-74
2021/09/26 02:22:53;;;;;;;6.97;5.55;;;;;;;16.20;99.10;96446.00;5221669;56;20118;-73
2021/09/26 02:27:56;;;;;;;5.65;5.03;;;;;;;16.25;98.47;96447.31;5221414;56;20680;-73
2021/09/26 02:32:58;;;;;;;8.25;5.13;;;;;;;16.31;97.51;96446.06;5221087;56;20646;-73
2021/09/26 02:38:00;;;;;;;7.72;5.15;;;;;;;16.17;98.30;96435.09;5220705;56;20668;-73
2021/09/26 02:43:13;;;;;;;5.72;4.93;;;;;;;16.13;98.72;96434.53;5221422;56;20126;-74
2021/09/26 02:48:24;;;;;;;6.30;5.38;;;;;;;16.18;98.50;96442.94;5221047;56;20706;-73
2021/09/26 02:53:27;;;;;;;6.85;5.07;;;;;;;16.07;99.24;96428.16;5221263;56;20136;-73
2021/09/26 02:58:30;;;;;;;8.60;5.65;;;;;;;16.02;99.49;96432.44;5221019;56;20595;-74
2021/09/26 03:03:32;;;;;;;7.38;5.55;;;;;;;15.98;99.65;96433.94;5221252;56;20127;-74
2021/09/26 03:08:35;;;;;;;5.75;5.18;;;;;;;15.91;99.29;96424.00;5220955;56;20140;-73
2021/09/26 03:13:37;;;;;;;8.40;5.32;;;;;;;15.90;99.75;96430.06;5221077;56;20118;-73
2021/09/26 03:18:40;;;;;;;7.28;5.55;;;;;;;15.94;99.88;96427.81;5220310;56;20122;-74
2021/09/26 03:23:42;;;;;;;6.78;5.13;;;;;;;15.96;99.28;96430.88;5220912;56;20131;-73
2021/09/26 03:28:45;;;;;;;6.00;4.93;;;;;;;15.96;99.17;96430.88;5219621;56;20127;-73
2021/09/26 03:33:47;;;;;;;7.22;4.95;;;;;;;15.75;99.97;96421.84;5220737;56;20134;-73
2021/09/26 03:38:50;;;;;;;7.57;5.57;;;;;;;15.72;100.00;96420.78;5220282;56;20140;-73
2021/09/26 03:43:52;;;;;;;6.00;5.05;;;;;;;15.67;100.00;96415.19;5220535;56;20136;-73
2021/09/26 03:48:54;;;;;;;5.68;5.07;;;;;;;15.70;100.00;96411.41;5220142;56;20605;-74
2021/09/26 03:53:57;;;;;;;6.90;5.63;;;;;;;15.70;100.00;96417.75;5220434;56;20131;-74
2021/09/26 03:58:59;;;;;;;6.03;5.22;;;;;;;15.59;100.00;96408.53;5220191;56;20139;-73
2021/09/26 04:04:02;;;;;;;7.80;5.07;;;;;;;15.49;100.00;96387.69;5220205;56;20118;-74
2021/09/26 04:09:06;;;;;;;4.85;4.38;;;;;;;15.48;100.00;96386.91;5220176;56;20122;-74
2021/09/26 04:14:08;;;;;;;4.93;4.43;;;;;;;15.46;100.00;96388.66;5220039;56;20134;-73
2021/09/26 04:19:10;;;;;;;5.55;4.32;;;;;;;15.42;100.00;96388.09;5219724;56;20122;-73
2021/09/26 04:24:13;;;;;;;4.68;4.25;;;;;;;15.30;100.00;96383.66;5220343;56;20140;-73
2021/09/26 04:29:15;;;;;;;4.63;4.20;;;;;;;15.27;100.00;96390.97;5218529;56;20140;-73
2021/09/26 04:34:18;;;;;;;5.28;4.75;;;;;;;15.22;100.00;96394.47;5221100;56;20122;-73
2021/09/26 04:39:20;;;;;;;4.90;4.35;;;;;;;15.24;100.00;96391.97;5222623;56;20714;-73
2021/09/26 04:44:23;;;;;;;7.63;4.70;;;;;;;15.31;100.00;96385.94;5223053;56;20140;-74
2021/09/26 04:49:28;;;;;;;4.80;3.92;;;;;;;15.43;100.00;96387.59;5222703;56;20635;-73
2021/09/26 04:54:30;;;;;;;6.25;4.25;;;;;;;15.53;100.00;96382.66;5222903;56;20126;-73
2021/09/26 04:59:33;;;;;;;5.80;4.40;;;;;;;15.52;100.00;96378.31;5222632;56;20591;-74
2021/09/26 05:04:35;;;;;;;5.88;3.88;;;;;;;15.45;100.00;96365.63;5222814;56;20612;-74
2021/09/26 05:09:38;;;;;;;5.60;3.90;;;;;;;15.36;100.00;96373.34;5222465;56;20681;-73
2021/09/26 05:14:40;;;;;;;4.45;4.05;;;;;;;15.42;100.00;96376.97;5223368;56;20215;-74
2021/09/26 05:19:46;;;;;;;3.78;3.47;;;;;;;15.47;100.00;96370.72;5222427;56;20135;-74
2021/09/26 05:24:48;;;;;;;5.82;3.60;;;;;;;15.61;100.00;96380.94;5222970;56;20118;-73
2021/09/26 05:29:51;;;;;;;5.38;4.07;;;;;;;15.57;100.00;96381.16;5222234;56;20123;-74
2021/09/26 05:34:53;;;;;;;6.25;3.83;;;;;;;15.61;100.00;96389.28;5222420;56;20109;-73
2021/09/26 05:39:56;;;;;;;4.57;3.97;;;;;;;15.62;100.00;96393.63;5222026;56;20144;-74
2021/09/26 05:44:58;;;;;;;4.03;3.65;;;;;;;15.69;100.00;96393.19;5221919;56;20127;-74
2021/09/26 05:50:00;;;;;;;4.68;3.70;;;;;;;15.71;100.00;96397.00;5221844;56;20109;-73
2021/09/26 05:55:03;;;;;;;4.05;3.63;;;;;;;15.87;100.00;96405.97;5222004;56;20551;-74
2021/09/26 06:00:07;;;;;;;4.05;3.67;;;;;;;16.14;98.95;96402.63;5222058;56;20176;-73
2021/09/26 06:05:11;;;;;;;5.18;3.53;;;;;;;16.38;97.25;96403.78;5222196;56;20587;-73
2021/09/26 06:10:13;;;;;;;4.18;3.63;;;;;;;16.52;96.78;96395.75;5222037;56;20263;-73
2021/09/26 06:15:16;;;;;;;4.13;3.50;;;;;;;16.73;95.63;96391.56;5221831;56;20136;-73
2021/09/26 06:20:18;;;;;;;4.68;3.42;;;;;;;16.82;94.71;96386.53;5221447;56;20718;-73
2021/09/26 06:25:20;;;;;;;4.65;3.15;;;;;;;17.06;93.25;96388.88;5221044;56;20548;-73
2021/09/26 06:30:23;;;;;;;4.20;2.70;;;;;;;17.33;92.15;96393.75;5221654;56;20122;-73
2021/09/26 06:35:26;;;;;;;5.35;3.10;;;;;;;17.45;91.38;96400.13;5221695;56;20692;-72
2021/09/26 06:40:30;;;;;;;3.45;2.67;;;;;;;17.62;90.40;96403.72;5220975;56;20647;-73
2021/09/26 06:45:33;;;;;;;4.72;3.15;;;;;;;17.65;89.22;96402.72;5221234;56;20556;-73
2021/09/26 06:50:36;;;;;;;2.67;2.50;;;;;;;17.62;89.85;96406.50;5221114;56;20710;-74
2021/09/26 06:55:38;;;;;;;3.45;2.67;;;;;;;17.72;89.26;96408.56;5220404;56;20153;-73
2021/09/26 07:00:41;;;;;;;4.47;2.92;;;;;;;17.85;88.98;96410.84;5221322;56;20609;-73
2021/09/26 07:05:44;;;;;;;4.15;3.10;;;;;;;18.08;87.07;96401.19;5220944;56;20114;-74
2021/09/26 07:10:46;;;;;;;6.03;2.58;;;;;;;18.23;86.42;96412.09;5221043;56;20136;-74
2021/09/26 07:15:48;;;;;;;3.92;2.55;;;;;;;18.48;85.69;96414.63;5220674;56;20105;-73
2021/09/26 07:20:51;;;;;;;3.47;2.30;;;;;;;18.69;84.04;96408.69;5220820;56;20135;-74
2021/09/26 07:25:54;;;;;;;3.05;2.35;;;;;;;19.15;81.93;96411.59;5220614;56;20122;-73
2021/09/26 07:30:56;;;;;;;4.90;2.40;;;;;;;19.43;81.67;96392.59;5212430;56;20117;-73
2021/09/26 07:35:59;;;;;;;3.05;2.15;;;;;;;19.59;79.95;96383.31;5202400;56;20122;-74
2021/09/26 07:41:02;;;;;;;5.10;2.50;;;;;;;19.75;78.56;96376.03;5218583;56;20149;-74
2021/09/26 07:46:04;;;;;;;2.95;2.33;;;;;;;20.02;77.35;96386.28;5207354;56;20114;-75
2021/09/26 07:51:07;;;;;;;3.03;2.10;;;;;;;20.17;76.95;96383.09;5199745;56;20144;-75
2021/09/26 07:56:10;;;;;;;7.25;2.67;;;;;;;20.37;76.10;96399.50;5199612;56;20139;-75
2021/09/26 08:01:12;;;;;;;3.90;2.53;;;;;;;20.77;74.54;96398.53;5199684;56;20184;-75
2021/09/26 08:06:18;;;;;;;2.55;2.35;;;;;;;20.95;72.50;96403.44;5201274;56;20128;-76
2021/09/26 08:11:20;;;;;;;7.60;2.33;;;;;;;21.15;70.12;96399.38;5204274;56;20234;-75
2021/09/26 08:16:22;;;;;;;2.80;2.60;;;;;;;21.42;68.77;96382.13;5205549;56;20109;-75
2021/09/26 08:21:25;;;;;;;2.30;2.10;;;;;;;21.51;71.50;96380.97;5223417;56;20127;-75
2021/09/26 08:26:27;;;;;;;4.43;2.60;;;;;;;21.76;68.58;96370.38;5222938;56;20564;-75
2021/09/26 08:31:30;;;;;;;2.80;2.22;;;;;;;22.08;66.94;96382.41;5209973;56;20119;-75
2021/09/26 08:36:32;;;;;;;2.83;2.08;;;;;;;22.60;67.30;96381.75;5193465;57;20180;-76
2021/09/26 08:41:35;;;;;;;3.30;2.33;;;;;;;22.67;66.81;96379.03;5202535;56;20110;-76
2021/09/26 08:46:39;;;;;;;2.70;2.33;;;;;;;23.34;63.15;96374.84;5202036;57;20118;-76
2021/09/26 08:51:45;;;;;;;3.53;2.15;;;;;;;23.71;61.35;96379.41;5202472;57;20119;-75
2021/09/26 08:56:47;;;;;;;4.78;2.13;;;;;;;24.66;58.27;96395.50;5202484;57;20127;-74
2021/09/26 09:01:50;;;;;;;2.60;2.30;;;;;;;25.41;55.08;96398.75;5207612;56;20145;-74
2021/09/26 09:07:03;;;;;;;2.75;2.25;;;;;;;25.69;54.10;96397.94;5222593;56;20205;-75
2021/09/26 09:12:08;;;;;;;5.22;2.00;;;;;;;25.84;54.21;96392.31;5223211;56;20123;-75
2021/09/26 09:17:11;;;;;;;2.58;2.13;;;;;;;26.46;52.76;96391.81;5221905;56;20910;-75
2021/09/26 09:22:17;;;;;;;5.25;2.17;;;;;;;27.00;50.50;96398.97;5220325;56;20131;-75
2021/09/26 09:27:20;;;;;;;3.20;2.08;;;;;;;26.84;49.57;96406.00;5221799;56;20140;-75
2021/09/26 09:32:23;;;;;;;2.90;2.13;;;;;;;26.28;51.69;96399.38;5221581;56;20579;-75
2021/09/26 09:37:26;;;;;;;6.35;2.55;;;;;;;26.01;51.27;96398.19;5215332;56;20127;-76
2021/09/26 09:42:37;;;;;;;4.72;2.60;;;;;;;25.69;51.04;96392.28;5217111;56;20126;-76
2021/09/26 09:48:00;;;;;;;3.55;2.00;;;;;;;26.53;48.59;96401.66;5220808;56;20140;-74
2021/09/26 09:53:04;;;;;;;6.65;2.20;;;;;;;26.63;48.29;96394.06;5217354;56;20118;-76
2021/09/26 09:58:17;;;;;;;4.53;2.28;;;;;;;26.46;49.68;96403.13;5220616;56;20122;-76
2021/09/26 10:03:36;;;;;;;2.50;2.05;;;;;;;27.04;50.65;96402.16;5221510;56;20122;-76
2021/09/26 10:08:38;;;;;;;4.43;2.20;;;;;;;26.60;49.46;96393.13;5221429;56;20654;-76
2021/09/26 10:13:59;;;;;;;4.85;2.42;;;;;;;26.54;52.68;96398.25;5221212;56;20165;-76
2021/09/26 10:19:01;;;;;;;6.45;2.40;;;;;;;26.74;50.71;96400.13;5220426;56;20130;-76
2021/09/26 10:24:04;;;;;;;3.58;2.55;;;;;;;26.58;49.52;96404.28;5221795;56;20122;-76
2021/09/26 10:29:09;;;;;;;3.67;2.10;;;;;;;27.18;47.75;96408.38;5221183;56;20955;-75
2021/09/26 10:34:11;;;;;;;3.70;2.10;;;;;;;27.43;49.15;96415.66;5221480;56;20117;-75
2021/09/26 10:39:15;;;;;;;4.10;2.10;;;;;;;27.98;46.88;96421.31;5221089;56;20126;-75
2021/09/26 10:44:25;;;;;;;4.45;1.90;;;;;;;27.62;45.62;96429.41;5221584;56;20118;-75
2021/09/26 10:49:37;;;;;;;7.30;2.38;;;;;;;27.19;48.21;96421.97;5220777;56;20131;-75
2021/09/26 10:54:40;;;;;;;7.35;2.20;;;;;;;26.89;47.20;96410.72;5221133;56;20555;-75
2021/09/26 10:59:45;;;;;;;6.90;2.05;;;;;;;27.62;47.84;96392.50;5220985;56;20122;-75
2021/09/26 11:04:58;;;;;;;4.30;2.05;;;;;;;27.87;46.13;96398.22;5221098;56;20136;-74
2021/09/26 11:10:04;;;;;;;5.72;2.47;;;;;;;27.64;43.72;96399.13;5220607;56;20149;-75
2021/09/26 11:15:12;;;;;;;4.13;2.22;;;;;;;28.16;45.38;96385.94;5219461;56;20118;-74
2021/09/26 11:20:30;;;;;;;;;;;;;;;27.36;45.23;96392.97;5194867;56;20113;-74
2021/09/26 11:26:00;;;;;;;7.53;2.00;;;;;;;27.36;44.29;96388.09;5220132;56;20048;-74
2021/09/26 11:31:11;;;;;;;6.07;2.13;;;;;;;27.07;46.63;96380.41;5220298;56;20219;-75
2021/09/26 11:36:18;;;;;;;4.07;2.28;;;;;;;27.60;42.90;96363.94;5212634;56;20113;-75
2021/09/26 11:41:33;;;;;;;5.78;2.00;;;;;;;27.86;46.82;96369.09;5220018;56;20153;-75
2021/09/26 11:46:36;;;;;;;3.00;2.00;;;;;;;28.48;43.39;96376.59;5219979;56;20127;-75
2021/09/26 11:51:38;;;;;;;6.68;2.60;;;;;;;28.11;43.13;96352.84;5219862;56;20122;-76
2021/09/26 11:56:42;;;;;;;6.45;2.30;;;;;;;28.85;46.11;96335.72;5219682;56;20152;-75
2021/09/26 12:01:47;;;;;;;7.80;2.13;;;;;;;27.88;41.80;96323.06;5219146;56;20118;-75
2021/09/26 12:07:02;;;;;;;3.10;1.80;;;;;;;27.90;42.28;96326.84;5219426;56;20219;-74
2021/09/26 12:12:08;;;;;;;3.78;2.13;;;;;;;28.00;45.29;96324.16;5210711;56;20189;-75
2021/09/26 12:17:13;;;;;;;5.97;2.10;;;;;;;27.22;44.32;96327.19;5209560;56;20149;-75
2021/09/26 12:22:18;;;;;;;5.15;2.20;;;;;;;26.84;44.84;96323.75;5210226;56;20221;-74
2021/09/26 12:27:34;;;;;;;3.50;2.08;;;;;;;26.04;47.21;96317.00;5211224;56;20144;-75
2021/09/26 12:32:46;;;;;;;8.23;2.40;;;;;;;26.14;49.65;96317.97;5216609;56;20123;-75
2021/09/26 12:37:53;;;;;;;4.50;2.10;;;;;;;26.18;46.07;96319.13;5200697;56;20163;-76
2021/09/26 12:42:58;;;;;;;7.47;2.22;;;;;;;26.54;47.96;96313.22;5213545;56;20126;-74
2021/09/26 12:48:01;;;;;;;8.85;3.22;;;;;;;25.52;54.87;96319.22;5209133;56;20122;-73
2021/09/26 12:53:07;;;;;;;8.48;3.33;;;;;;;25.40;55.38;96326.50;5208223;56;20122;-74
2021/09/26 12:58:34;;;;;;;3.72;2.88;;;;;;;25.54;55.03;96327.13;5202610;56;20130;-73
2021/09/26 13:03:45;;;;;;;4.40;2.90;;;;;;;25.97;53.47;96329.06;5212241;56;20139;-73
2021/09/26 13:08:47;;;;;;;5.68;3.40;;;;;;;26.17;53.30;96325.31;5210851;56;20127;-74
2021/09/26 13:14:02;;;;;;;5.75;3.10;;;;;;;26.18;54.46;96324.00;5212248;56;20126;-77
2021/09/26 13:19:41;;;;;;;5.35;2.88;;;;;;;26.31;52.96;96303.97;5208917;56;20119;-74
2021/09/26 13:24:50;;;;;;;5.60;3.03;;;;;;;26.57;51.02;96312.06;5211860;56;20651;-74
2021/09/26 13:29:52;;;;;;;5.75;2.72;;;;;;;26.08;51.12;96308.88;5211645;56;20128;-74
2021/09/26 13:35:00;;;;;;;7.18;2.83;;;;;;;25.58;53.58;96314.13;5213614;56;20128;-74
2021/09/26 13:40:08;;;;;;;7.13;2.72;;;;;;;25.52;53.48;96324.88;5207369;56;20136;-74
2021/09/26 13:45:11;;;;;;;7.50;2.63;;;;;;;25.29;52.87;96297.81;5209082;56;20110;-74
2021/09/26 13:50:14;;;;;;;6.82;2.47;;;;;;;25.50;52.09;96287.91;5246159;45;20118;-75
2021/09/26 13:55:19;;;;;;;6.03;2.50;;;;;;;25.70;52.07;96276.97;5258159;56;20117;-73
2021/09/26 14:00:21;;;;;;;3.90;2.15;;;;;;;25.72;51.15;96271.50;5250443;56;20095;-75
2021/09/26 14:05:24;;;;;;;7.65;2.70;;;;;;;26.07;51.07;96276.22;5241232;56;20092;-76
2021/09/26 14:10:27;;;;;;;6.57;3.13;;;;;;;26.46;50.44;96264.28;5239294;56;20144;-74
2021/09/26 14:15:31;;;;;;;7.00;2.70;;;;;;;26.34;50.23;96263.19;5241667;56;20092;-74
2021/09/26 14:20:36;;;;;;;5.93;2.72;;;;;;;26.58;50.51;96256.88;5236940;56;20667;-74
2021/09/26 14:25:40;;;;;;;5.85;2.67;;;;;;;26.92;50.46;96264.91;5233682;56;20122;-73
2021/09/26 14:30:43;;;;;;;7.80;2.85;;;;;;;26.85;49.77;96260.03;5236591;56;20114;-73
2021/09/26 14:35:45;;;;;;;10.65;2.80;;;;;;;26.26;49.61;96242.59;5246703;56;20131;-75
2021/09/26 14:40:49;;;;;;;8.10;2.97;;;;;;;25.84;50.64;96252.81;5243817;56;20148;-74
2021/09/26 14:45:51;;;;;;;5.25;3.15;;;;;;;25.34;53.31;96252.38;5237933;56;20211;-74
2021/09/26 14:50:55;;;;;;;4.75;3.08;;;;;;;25.16;54.21;96250.63;5237488;56;20118;-75
2021/09/26 14:55:57;;;;;;;9.13;3.10;;;;;;;25.36;55.29;96248.97;5244992;56;20109;-76
2021/09/26 15:01:00;;;;;;;4.53;3.05;;;;;;;25.23;53.77;96260.44;5240419;56;20663;-76
2021/09/26 15:06:02;;;;;;;8.75;3.15;;;;;;;25.26;53.19;96262.16;5241842;56;20110;-74
2021/09/26 15:11:06;;;;;;;7.15;3.50;;;;;;;25.17;53.51;96265.53;5237661;56;20145;-74
2021/09/26 15:16:08;;;;;;;11.20;3.25;;;;;;;24.87;53.53;96261.28;5234871;56;20127;-73
2021/09/26 15:21:11;;;;;;;5.35;3.17;;;;;;;24.82;54.52;96265.03;5235776;56;20140;-74
2021/09/26 15:26:15;;;;;;;8.55;3.92;;;;;;;24.66;55.64;96274.72;5235413;56;20712;-74
2021/09/26 15:31:19;;;;;;;9.68;3.53;;;;;;;24.57;58.86;96278.09;5236957;56;20153;-73
2021/09/26 15:36:23;;;;;;;6.40;4.18;;;;;;;24.36;59.35;96276.66;5228741;56;20118;-73
2021/09/26 15:41:26;;;;;;;9.05;4.72;;;;;;;24.17;61.82;96274.84;5233442;56;20126;-74
2021/09/26 15:46:28;;;;;;;8.10;5.43;;;;;;;24.04;62.34;96280.53;5235399;56;20229;-75
2021/09/26 15:51:31;;;;;;;9.80;5.70;;;;;;;24.03;62.95;96276.22;5235104;56;20215;-75
2021/09/26 15:56:33;;;;;;;11.52;5.63;;;;;;;23.99;63.19;96263.75;5242809;56;20126;-74
2021/09/26 16:01:35;;;;;;;8.68;6.10;;;;;;;24.03;62.73;96276.22;5235951;56;20121;-74
2021/09/26 16:06:38;;;;;;;7.25;5.55;;;;;;;23.92;62.63;96264.44;5230990;56;20106;-75
2021/09/26 16:11:40;;;;;;;6.78;5.88;;;;;;;23.84;62.42;96258.75;5235334;56;20125;-75
2021/09/26 16:16:43;;;;;;;9.52;6.10;;;;;;;23.56;63.79;96261.53;5226916;56;20107;-75
2021/09/26 16:21:46;;;;;;;11.27;6.65;;;;;;;23.52;63.29;96253.38;5227275;56;20096;-76
2021/09/26 16:26:48;;;;;;;11.23;7.00;;;;;;;23.62;62.91;96256.50;5236070;56;20109;-74
2021/09/26 16:31:52;;;;;;;10.02;6.13;;;;;;;23.38;65.17;96254.03;5239491;56;20113;-75
2021/09/26 16:36:54;;;;;;;7.13;6.10;;;;;;;23.27;63.83;96257.81;5240534;56;20109;-74
2021/09/26 16:41:57;;;;;;;7.70;6.05;;;;;;;23.01;65.61;96257.16;5239325;56;20232;-75
2021/09/26 16:46:59;;;;;;;8.68;5.88;;;;;;;22.86;66.24;96249.31;5239376;56;20128;-77
2021/09/26 16:52:02;;;;;;;7.43;6.63;;;;;;;22.79;66.68;96247.16;5237894;56;20096;-76
2021/09/26 16:57:05;;;;;;;8.15;6.15;;;;;;;22.57;65.49;96256.78;5230075;56;20196;-74
2021/09/26 17:02:08;;;;;;;7.78;5.63;;;;;;;22.27;63.65;96235.94;5243556;56;20131;-76
2021/09/26 17:07:11;;;;;;;6.75;5.80;;;;;;;21.95;64.78;96253.69;5246676;56;20101;-75
2021/09/26 17:12:15;;;;;;;7.28;6.05;;;;;;;21.78;63.65;96266.53;5239280;56;20114;-75
2021/09/26 17:17:17;;;;;;;5.85;5.25;;;;;;;21.65;64.11;96267.25;5245052;56;20101;-75
2021/09/26 17:22:20;;;;;;;6.45;5.70;;;;;;;21.44;64.56;96267.06;5238145;56;20191;-75
2021/09/26 17:27:22;;;;;;;5.88;5.25;;;;;;;21.37;64.91;96266.97;5238377;56;20109;-75
2021/09/26 17:32:25;;;;;;;5.88;5.38;;;;;;;21.11;65.97;96259.19;5238748;56;20113;-74
2021/09/26 17:37:27;;;;;;;6.70;5.45;;;;;;;20.88;66.71;96255.16;5230688;56;20117;-75
2021/09/26 17:42:29;;;;;;;7.65;5.13;;;;;;;20.87;66.56;96256.47;5230743;56;20123;-76
2021/09/26 17:47:32;;;;;;;6.03;5.43;;;;;;;20.87;67.10;96269.72;5223742;56;20261;-75
2021/09/26 17:52:34;;;;;;;6.25;5.55;;;;;;;20.78;66.89;96282.13;5223356;56;20167;-75
2021/09/26 17:57:37;;;;;;;6.45;5.47;;;;;;;20.67;67.71;96282.25;5238459;56;20123;-75
2021/09/26 18:02:40;;;;;;;7.63;5.65;;;;;;;20.58;67.89;96265.78;5238263;56;20193;-73
2021/09/26 18:07:42;;;;;;;5.50;5.00;;;;;;;20.56;68.38;96274.72;5238304;56;20162;-73
2021/09/26 18:12:45;;;;;;;7.53;5.38;;;;;;;20.50;68.19;96265.63;5239014;56;20144;-75
2021/09/26 18:17:47;;;;;;;6.70;5.13;;;;;;;20.55;67.96;96258.41;5224540;56;20127;-76
2021/09/26 18:22:50;;;;;;;8.35;5.50;;;;;;;20.39;69.04;96265.00;5218760;56;20118;-76
2021/09/26 18:27:53;;;;;;;6.03;5.38;;;;;;;20.51;68.49;96281.16;5237695;56;21003;-74
2021/09/26 18:32:55;;;;;;;5.88;4.47;;;;;;;20.43;68.83;96283.06;5238524;56;20127;-75
2021/09/26 18:37:58;;;;;;;5.50;5.00;;;;;;;20.42;69.84;96286.41;5236629;56;20278;-75
2021/09/26 18:43:01;;;;;;;5.78;5.28;;;;;;;20.29;69.71;96292.66;5228619;56;20115;-76
2021/09/26 18:48:05;;;;;;;7.97;5.20;;;;;;;20.35;69.14;96301.03;5243086;56;20139;-75
2021/09/26 18:53:09;;;;;;;5.53;4.95;;;;;;;20.38;68.53;96295.09;5237100;56;20118;-76
2021/09/26 18:58:12;;;;;;;5.70;5.15;;;;;;;20.32;68.42;96290.84;5233996;56;20109;-75
2021/09/26 19:03:15;;;;;;;6.63;5.00;;;;;;;20.29;67.76;96294.69;5235764;56;20282;-76
2021/09/26 19:08:18;;;;;;;5.38;4.88;;;;;;;20.21;68.97;96311.38;5235888;56;20153;-76
2021/09/26 19:13:20;;;;;;;5.28;4.78;;;;;;;20.01;69.60;96320.25;5233877;56;20170;-75
2021/09/26 19:18:23;;;;;;;5.43;4.40;;;;;;;20.08;66.54;96321.69;5228020;56;20122;-75
2021/09/26 19:23:26;;;;;;;5.38;4.10;;;;;;;20.08;66.46;96316.09;5234666;56;20265;-75
2021/09/26 19:28:30;;;;;;;5.35;4.88;;;;;;;20.00;67.46;96319.47;5232027;56;20118;-76
2021/09/26 19:33:33;;;;;;;5.90;4.47;;;;;;;20.01;68.67;96326.59;5241405;56;20222;-74
2021/09/26 19:38:36;;;;;;;7.63;4.57;;;;;;;19.86;68.77;96331.84;5241397;56;20206;-74
2021/09/26 19:43:41;;;;;;;5.35;4.85;;;;;;;19.85;69.56;96344.34;5232012;56;20113;-78
2021/09/26 19:48:44;;;;;;;6.30;4.50;;;;;;;19.87;70.34;96346.63;5237007;56;20114;-73
2021/09/26 19:53:46;;;;;;;6.15;4.32;;;;;;;19.83;70.74;96349.72;5233862;56;20114;-74
2021/09/26 19:58:51;;;;;;;7.63;5.45;;;;;;;19.49;73.88;96362.50;5238888;56;20167;-77
2021/09/26 20:03:55;;;;;;;6.00;5.40;;;;;;;19.36;77.65;96353.16;5245138;56;20130;-76
2021/09/26 20:08:58;;;;;;;9.38;5.45;;;;;;;19.11;81.27;96355.81;5238580;56;20117;-74
2021/09/26 20:14:02;;;;;;;7.43;5.72;;;;;;;18.58;88.17;96359.91;5234955;56;20113;-74
2021/09/26 20:19:10;;;;;;;5.82;5.22;;;;;;;18.46;90.32;96360.44;5230343;56;20293;-76
2021/09/26 20:24:14;;;;;;;8.80;6.00;;;;;;;18.22;91.14;96369.38;5236996;56;20609;-75
2021/09/26 20:29:16;;;;;;;7.75;6.07;;;;;;;17.96;93.96;96371.69;5239047;56;20100;-74
2021/09/26 20:34:18;;;;;;;7.53;5.97;;;;;;;17.86;94.58;96367.66;5230214;56;20100;-75
2021/09/26 20:39:21;;;;;;;6.18;5.40;;;;;;;17.83;96.62;96382.66;5239085;56;20127;-76
2021/09/26 20:44:24;;;;;;;9.35;7.20;;;;;;;17.74;97.70;96360.53;5241313;56;20126;-74
2021/09/26 20:49:27;;;;;;;12.55;7.22;;;;;;;17.68;99.31;96390.53;5236365;56;20106;-74
2021/09/26 20:54:29;;;;;;;8.32;6.38;;;;;;;17.72;99.30;96397.38;5238980;56;20126;-75
2021/09/26 20:59:32;;;;;;;10.82;6.93;;;;;;;17.64;100.00;96378.84;5238171;56;20117;-75
2021/09/26 21:04:34;;;;;;;12.15;6.88;;;;;;;17.53;100.00;96381.59;5238410;56;20127;-76
2021/09/26 21:09:37;;;;;;;11.38;7.15;;;;;;;17.56;100.00;96391.78;5239023;56;20100;-75
2021/09/26 21:14:39;;;;;;;8.63;5.72;;;;;;;17.45;98.32;96402.91;5240129;56;20211;-76
2021/09/26 21:19:43;;;;;;;8.85;5.85;;;;;;;17.20;98.44;96410.25;5240624;56;20127;-76
2021/09/26 21:24:45;;;;;;;7.38;5.65;;;;;;;17.07;100.00;96421.84;5233928;56;20122;-76
2021/09/26 21:29:47;;;;;;;8.40;5.57;;;;;;;17.14;100.00;96432.53;5228972;56;20220;-75
2021/09/26 21:34:50;;;;;;;7.93;5.32;;;;;;;16.94;100.00;96446.69;5226368;56;20127;-76
2021/09/26 21:39:53;;;;;;;7.85;5.30;;;;;;;16.96;100.00;96458.13;5232717;56;20113;-76
2021/09/26 21:44:55;;;;;;;8.63;5.18;;;;;;;16.90;100.00;96465.72;5235854;56;20126;-75
2021/09/26 21:49:58;;;;;;;12.00;5.50;;;;;;;16.75;100.00;96473.50;5241025;56;20104;-76
2021/09/26 21:55:00;;;;;;;5.97;4.85;;;;;;;16.52;100.00;96483.00;5230952;56;20109;-76
2021/09/26 22:00:31;;;;;;;9.50;5.35;;;;;;;16.47;100.00;96483.69;5231489;56;20092;-75
2021/09/26 22:05:34;;;;;;;7.07;5.15;;;;;;;16.58;100.00;96481.00;5228655;56;20165;-76
2021/09/26 22:10:38;;;;;;;8.85;5.38;;;;;;;16.58;100.00;96489.38;5228000;56;20127;-76
2021/09/26 22:15:42;;;;;;;6.68;5.13;;;;;;;16.37;100.00;96490.75;5225966;56;20140;-76
2021/09/26 22:20:51;;;;;;;6.82;4.80;;;;;;;16.36;100.00;96503.91;5227389;56;20218;-76
2021/09/26 22:25:54;;;;;;;8.98;6.03;;;;;;;16.21;100.00;96506.09;5227231;56;20209;-75
2021/09/26 22:30:56;;;;;;;5.85;5.13;;;;;;;16.15;100.00;96504.50;5226742;56;20131;-76
2021/09/26 22:35:58;;;;;;;8.80;6.72;;;;;;;15.99;100.00;96497.53;5226495;56;20122;-76
2021/09/26 22:41:03;;;;;;;9.07;6.47;;;;;;;15.98;100.00;96481.31;5225516;56;20600;-75
2021/09/26 22:46:06;;;;;;;9.52;6.28;;;;;;;15.93;100.00;96480.00;5226316;56;20323;-76
2021/09/26 22:51:10;;;;;;;8.43;6.05;;;;;;;16.05;100.00;96484.41;5229723;56;20140;-76
2021/09/26 22:56:13;;;;;;;8.20;5.25;;;;;;;16.17;100.00;96490.84;5232251;56;20105;-76
2021/09/26 23:01:27;;;;;;;6.45;5.28;;;;;;;16.27;100.00;96489.38;5233328;56;20117;-75
2021/09/26 23:06:30;;;;;;;9.18;5.75;;;;;;;16.16;100.00;96492.09;5229316;56;20263;-76
2021/09/26 23:11:33;;;;;;;6.70;5.68;;;;;;;16.19;100.00;96480.72;5229590;56;20118;-75
2021/09/26 23:16:35;;;;;;;8.52;6.28;;;;;;;16.12;100.00;96483.19;5231287;56;20113;-75
2021/09/26 23:21:38;;;;;;;8.18;6.05;;;;;;;16.25;100.00;96494.72;5229300;56;20560;-76
2021/09/26 23:26:40;;;;;;;9.05;6.25;;;;;;;16.31;100.00;96487.13;5233805;56;20170;-76
2021/09/26 23:31:43;;;;;;;10.90;6.57;;;;;;;16.41;100.00;96502.44;5227464;56;20118;-75
2021/09/26 23:36:45;;;;;;;10.07;6.53;;;;;;;16.49;100.00;96506.28;5226098;56;20105;-75
2021/09/26 23:41:48;;;;;;;9.38;6.70;;;;;;;16.56;100.00;96510.66;5227857;56;20140;-77
2021/09/26 23:46:50;;;;;;;7.75;5.85;;;;;;;16.54;100.00;96508.38;5226408;56;20635;-76
2021/09/26 23:51:52;;;;;;;10.10;6.18;;;;;;;16.50;100.00;96510.59;5227325;56;20109;-76